Time;durP1;ratioP1;P1;durP2;ratioP2;P2;SDS_P1;SDS_P2;PMS_P1;PMS_P2;Temp;Humidity;BMP_temperature;BMP_pressure;BME280_temperature;BME280_humidity;BME280_pressure;Samples;Min_cycle;Max_cycle;Signal;HPM_P1;HPM_P2
2021/07/24 00:00:34;;;;;;;5.68;3.05;;;;;;;27.23;33.56;97983.63;5032291;28;20075;-51
2021/07/24 00:02:59;;;;;;;10.50;2.85;;;;;;;27.31;33.11;97984.69;5032249;28;20026;-51
2021/07/24 00:05:26;;;;;;;4.97;2.80;;;;;;;27.24;33.41;97998.69;5047466;28;20036;-50
2021/07/24 00:07:52;;;;;;;9.60;3.25;;;;;;;27.19;33.18;98012.31;5032052;28;20021;-51
2021/07/24 00:10:18;;;;;;;5.15;2.80;;;;;;;27.24;32.98;98008.66;5032127;28;20028;-51
2021/07/24 00:12:43;;;;;;;8.68;3.20;;;;;;;27.23;32.99;98024.06;5032106;28;20032;-51
2021/07/24 00:15:10;;;;;;;7.88;2.83;;;;;;;27.24;32.84;98012.16;5032033;28;20021;-50
2021/07/24 00:17:35;;;;;;;12.40;2.72;;;;;;;27.28;32.78;98023.84;5031932;28;20053;-50
2021/07/24 00:20:01;;;;;;;10.93;2.75;;;;;;;27.36;32.53;98034.91;5032003;28;20026;-51
2021/07/24 00:22:27;;;;;;;7.35;3.03;;;;;;;27.37;32.53;98039.97;5031951;28;20108;-51
2021/07/24 00:24:53;;;;;;;17.23;8.20;;;;;;;27.50;32.74;98043.53;5047213;28;20491;-51
2021/07/24 00:27:18;;;;;;;10.55;3.85;;;;;;;28.02;32.37;98040.44;5031751;28;20060;-51
2021/07/24 00:29:47;;;;;;;6.05;2.67;;;;;;;28.64;31.19;98060.34;5031837;28;20028;-51
2021/07/24 00:32:12;;;;;;;5.57;3.53;;;;;;;28.64;30.98;98054.16;5031893;28;20025;-50
2021/07/24 00:34:38;;;;;;;12.13;8.10;;;;;;;28.42;31.59;98069.59;5031822;28;20037;-51
2021/07/24 00:37:04;;;;;;;13.52;3.83;;;;;;;28.45;31.88;98063.53;5032036;28;20417;-51
2021/07/24 00:39:29;;;;;;;8.30;4.22;;;;;;;28.42;32.29;98074.22;5031231;28;20025;-51
2021/07/24 00:42:18;;;;;;;5.15;3.50;;;;;;;28.24;32.76;98073.59;5031738;28;20033;-51
2021/07/24 00:44:47;;;;;;;11.27;3.45;;;;;;;27.96;33.16;98071.44;5031720;28;20067;-51
2021/07/24 00:47:18;;;;;;;10.32;5.80;;;;;;;27.85;33.57;98073.72;5031616;28;20029;-51
2021/07/24 00:49:48;;;;;;;9.40;3.28;;;;;;;27.95;33.37;98079.84;5047042;28;20067;-51
2021/07/24 00:52:14;;;;;;;4.72;2.50;;;;;;;27.76;33.23;98075.69;5031663;28;20109;-51
2021/07/24 00:54:41;;;;;;;3.58;2.75;;;;;;;27.70;33.40;98079.72;5046918;28;20033;-51
2021/07/24 00:57:08;;;;;;;9.57;3.35;;;;;;;27.63;33.73;98085.63;5031649;28;20522;-51
2021/07/24 00:59:35;;;;;;;9.23;3.30;;;;;;;27.57;33.56;98086.13;5031778;28;20437;-51
2021/07/24 01:02:01;;;;;;;16.02;7.03;;;;;;;27.88;33.55;98093.88;5046798;28;20025;-50
2021/07/24 01:04:27;;;;;;;7.97;4.88;;;;;;;28.18;33.68;98083.78;5030168;28;20594;-51
2021/07/24 01:06:56;;;;;;;8.02;3.55;;;;;;;28.40;35.38;98081.84;5031473;28;20032;-51
2021/07/24 01:09:26;;;;;;;6.70;3.40;;;;;;;28.34;34.53;98073.16;5031513;28;20049;-50
2021/07/24 01:11:53;;;;;;;11.20;4.03;;;;;;;28.35;34.26;98063.94;5031489;28;20032;-51
2021/07/24 01:14:19;;;;;;;12.60;5.45;;;;;;;28.54;33.78;98060.75;5031456;28;20025;-51
2021/07/24 01:16:45;;;;;;;7.63;3.63;;;;;;;28.56;33.55;98053.13;5031166;28;20049;-51
2021/07/24 01:19:12;;;;;;;12.77;5.28;;;;;;;28.45;33.91;98070.81;5030104;28;20116;-51
2021/07/24 01:21:41;;;;;;;6.88;3.08;;;;;;;28.48;34.47;98070.97;5031358;28;20521;-51
2021/07/24 01:24:06;;;;;;;7.45;4.13;;;;;;;28.28;34.34;98080.69;5046603;28;20040;-50
2021/07/24 01:26:34;;;;;;;6.15;3.08;;;;;;;28.02;34.49;98072.03;5031196;28;20025;-51
2021/07/24 01:29:01;;;;;;;6.88;3.13;;;;;;;27.52;35.43;98073.63;5030140;28;20032;-51
2021/07/24 01:31:27;;;;;;;8.50;3.33;;;;;;;26.96;35.91;98081.81;5031468;28;20034;-50
2021/07/24 01:33:53;;;;;;;6.03;2.83;;;;;;;26.61;36.28;98086.53;5046564;28;20048;-51
2021/07/24 01:36:18;;;;;;;12.57;2.95;;;;;;;26.30;36.80;98082.94;5046487;28;20034;-51
2021/07/24 01:38:45;;;;;;;7.05;3.20;;;;;;;26.19;37.58;98091.66;5046595;28;20032;-50
2021/07/24 01:41:13;;;;;;;8.60;3.70;;;;;;;26.09;38.13;98096.22;5031155;28;20079;-51
2021/07/24 01:43:39;;;;;;;5.88;3.25;;;;;;;26.06;38.26;98101.47;5031217;28;20025;-51
2021/07/24 01:46:06;;;;;;;5.28;3.22;;;;;;;25.95;38.67;98089.44;5046409;28;20037;-51
2021/07/24 01:53:55;;;;;;;6.65;3.05;;;;;;;25.66;38.75;98080.84;5034654;28;20514;-51
2021/07/24 01:56:27;;;;;;;5.70;3.13;;;;;;;25.56;38.73;98080.38;5034647;28;20033;-51
2021/07/24 01:58:53;;;;;;;3.58;2.65;;;;;;;25.42;39.10;98081.28;5034553;28;20025;-51
2021/07/24 02:01:21;;;;;;;4.30;2.72;;;;;;;25.31;39.51;98086.16;5049836;28;20466;-51
2021/07/24 02:03:54;;;;;;;6.97;3.53;;;;;;;25.19;40.18;98082.44;5049745;28;20112;-51
2021/07/24 02:06:20;;;;;;;6.32;3.03;;;;;;;25.15;40.89;98081.47;5049416;28;20033;-50
2021/07/24 02:08:50;;;;;;;8.05;3.22;;;;;;;25.08;41.65;98074.66;5034384;28;20063;-50
2021/07/24 02:11:18;;;;;;;7.70;3.03;;;;;;;24.85;41.44;98067.78;5034347;28;20029;-50
2021/07/24 02:13:46;;;;;;;6.65;2.90;;;;;;;24.67;41.79;98078.44;5033024;28;20033;-51
2021/07/24 02:16:13;;;;;;;8.07;4.50;;;;;;;24.61;42.84;98084.22;5033922;28;20041;-50
2021/07/24 02:18:39;;;;;;;6.40;3.28;;;;;;;24.64;42.30;98097.06;5032941;28;20025;-51
2021/07/24 02:21:05;;;;;;;6.38;3.30;;;;;;;24.56;42.69;98092.44;5034171;28;20021;-51
2021/07/24 02:23:31;;;;;;;6.60;2.97;;;;;;;24.58;42.74;98096.38;5034110;28;20017;-51
2021/07/24 02:25:56;;;;;;;7.78;3.20;;;;;;;24.61;42.95;98090.41;5034363;28;20474;-51
2021/07/24 02:28:22;;;;;;;7.65;3.25;;;;;;;24.63;43.53;98088.22;5034206;28;20064;-50
2021/07/24 02:30:48;;;;;;;8.30;3.15;;;;;;;24.50;43.95;98092.53;5049534;28;20045;-51
2021/07/24 02:33:13;;;;;;;8.88;4.72;;;;;;;24.43;44.29;98081.44;5049284;28;20507;-50
2021/07/24 02:35:39;;;;;;;7.15;3.35;;;;;;;24.32;44.64;98091.59;5049213;28;20810;-50
2021/07/24 02:38:06;;;;;;;9.90;4.57;;;;;;;24.18;44.49;98079.38;5033881;28;20033;-50
2021/07/24 02:40:36;;;;;;;10.02;3.45;;;;;;;24.26;44.10;98081.31;5033736;28;20029;-50
2021/07/24 02:43:02;;;;;;;6.07;3.50;;;;;;;24.30;44.11;98082.28;5033728;28;20029;-50
2021/07/24 02:45:27;;;;;;;8.48;3.53;;;;;;;24.24;44.33;98078.16;5033664;28;20087;-50
2021/07/24 02:47:53;;;;;;;14.95;4.00;;;;;;;24.23;44.36;98084.63;5033595;28;20025;-50
2021/07/24 02:50:19;;;;;;;10.57;3.78;;;;;;;24.23;44.34;98080.03;5048952;28;20517;-50
2021/07/24 02:52:44;;;;;;;7.72;3.85;;;;;;;24.14;44.59;98076.50;5033535;28;20083;-50
2021/07/24 02:55:11;;;;;;;10.02;4.18;;;;;;;24.14;44.45;98073.81;5033711;28;20128;-50
2021/07/24 02:57:36;;;;;;;4.75;3.10;;;;;;;24.22;44.04;98069.63;5033768;28;20028;-50
2021/07/24 03:00:04;;;;;;;9.50;4.80;;;;;;;24.36;43.74;98064.19;5033402;28;20539;-50
2021/07/24 03:02:30;;;;;;;6.95;3.72;;;;;;;24.40;43.96;98065.16;5048197;28;20030;-50
2021/07/24 03:04:56;;;;;;;12.75;3.55;;;;;;;24.33;44.13;98062.91;5048724;28;20032;-50
2021/07/24 03:07:21;;;;;;;9.75;7.93;;;;;;;24.22;44.70;98070.41;5033146;28;20445;-49
2021/07/24 03:09:47;;;;;;;7.72;3.63;;;;;;;24.05;44.72;98072.97;5033470;28;20037;-50
2021/07/24 03:12:13;;;;;;;10.35;4.40;;;;;;;24.07;44.63;98071.56;5031891;28;20126;-50
2021/07/24 03:14:38;;;;;;;4.13;3.03;;;;;;;24.15;44.19;98074.59;5033070;28;20112;-50
2021/07/24 03:17:04;;;;;;;7.68;3.42;;;;;;;24.16;44.38;98081.56;5032825;28;20072;-51
2021/07/24 03:19:29;;;;;;;6.20;2.85;;;;;;;24.08;44.45;98073.13;5033069;28;20048;-50
2021/07/24 03:21:55;;;;;;;8.70;3.25;;;;;;;24.01;44.54;98072.78;5033004;28;20151;-50
2021/07/24 03:24:21;;;;;;;4.60;2.80;;;;;;;24.03;44.41;98075.16;5032974;28;20052;-50
2021/07/24 03:26:46;;;;;;;5.28;3.10;;;;;;;24.12;44.67;98066.06;5032861;28;20027;-50
2021/07/24 03:29:12;;;;;;;3.60;2.60;;;;;;;24.16;44.53;98068.94;5032816;28;20018;-50
2021/07/24 03:31:38;;;;;;;6.38;3.40;;;;;;;24.18;44.34;98060.59;5031489;28;20403;-50
2021/07/24 03:34:04;;;;;;;6.32;2.58;;;;;;;24.16;44.04;98062.78;5032812;28;20018;-51
2021/07/24 03:36:29;;;;;;;7.97;2.90;;;;;;;24.10;44.48;98065.59;5032728;28;20033;-50
2021/07/24 03:38:55;;;;;;;5.22;2.45;;;;;;;24.10;44.31;98054.06;5048004;28;20030;-50
2021/07/24 03:41:21;;;;;;;4.38;2.55;;;;;;;24.11;44.34;98056.47;5047928;28;20033;-50
2021/07/24 03:43:46;;;;;;;3.90;2.35;;;;;;;24.21;44.02;98060.78;5032624;28;20025;-50
2021/07/24 03:46:15;;;;;;;6.63;2.97;;;;;;;24.21;44.20;98063.47;5032550;28;20549;-50
2021/07/24 03:48:42;;;;;;;2.70;2.30;;;;;;;24.11;44.21;98050.31;5032562;28;20030;-50
2021/07/24 03:51:12;;;;;;;7.38;3.17;;;;;;;24.03;44.56;98067.13;5032463;28;20121;-51
2021/07/24 03:53:39;;;;;;;4.47;2.17;;;;;;;24.02;44.35;98073.56;5032482;28;20025;-50
2021/07/24 03:56:05;;;;;;;5.78;3.22;;;;;;;24.10;44.64;98087.03;5047616;28;20033;-50
2021/07/24 03:58:31;;;;;;;8.82;3.30;;;;;;;24.60;43.99;98094.19;5032336;28;20053;-50
2021/07/24 04:00:59;;;;;;;13.90;4.18;;;;;;;24.88;42.98;98091.34;5031029;28;20068;-50
2021/07/24 04:03:25;;;;;;;10.07;2.90;;;;;;;25.00;42.65;98082.69;5032220;28;20487;-49
2021/07/24 04:05:52;;;;;;;15.07;4.07;;;;;;;24.90;43.18;98103.34;5032062;28;20067;-50
2021/07/24 04:08:18;;;;;;;15.98;5.85;;;;;;;25.30;42.46;98106.06;5032074;28;20018;-50
2021/07/24 04:10:44;;;;;;;13.52;5.38;;;;;;;25.79;41.22;98089.88;5047633;28;20514;-49
2021/07/24 04:13:11;;;;;;;8.93;2.95;;;;;;;25.82;40.90;98110.75;5032165;28;20029;-50
2021/07/24 04:15:37;;;;;;;7.50;3.22;;;;;;;25.82;40.63;98121.50;5029936;28;20052;-50
2021/07/24 04:18:05;;;;;;;6.32;2.85;;;;;;;25.85;40.45;98128.94;5047453;28;20057;-50
2021/07/24 04:20:30;;;;;;;15.23;9.57;;;;;;;26.04;40.76;98133.28;5031963;28;20052;-49
2021/07/24 04:22:56;;;;;;;10.88;3.63;;;;;;;26.47;40.47;98129.75;5047387;28;20064;-50
2021/07/24 04:25:22;;;;;;;11.82;4.13;;;;;;;26.66;40.08;98126.72;5031932;28;20033;-51
2021/07/24 04:27:48;;;;;;;9.98;3.88;;;;;;;26.83;39.96;98129.41;5031909;28;20026;-50
2021/07/24 04:30:14;;;;;;;11.15;3.90;;;;;;;27.06;39.45;98126.47;5032077;28;20033;-50
2021/07/24 04:32:39;;;;;;;13.07;6.78;;;;;;;27.24;38.99;98119.13;5031827;28;20025;-51
2021/07/24 04:35:06;;;;;;;14.18;4.05;;;;;;;27.24;38.98;98113.75;5031787;28;20099;-50
2021/07/24 04:37:31;;;;;;;4.93;2.67;;;;;;;26.98;38.96;98109.22;5032020;28;20390;-51
2021/07/24 04:39:57;;;;;;;9.82;2.90;;;;;;;26.51;39.39;98104.56;5031719;28;20029;-51
2021/07/24 04:42:23;;;;;;;7.60;2.78;;;;;;;26.09;40.03;98103.50;5031697;28;20026;-50
2021/07/24 04:44:48;;;;;;;6.55;2.92;;;;;;;25.74;40.45;98102.69;5031775;28;20017;-51
2021/07/24 04:47:17;;;;;;;8.82;3.17;;;;;;;25.54;41.17;98096.00;5031628;28;20026;-51
2021/07/24 04:49:49;;;;;;;5.88;3.25;;;;;;;25.39;41.74;98084.56;5031759;28;20044;-51
2021/07/24 04:52:15;;;;;;;4.70;2.88;;;;;;;25.23;41.94;98081.56;5031715;28;20033;-51
2021/07/24 04:54:44;;;;;;;7.30;3.05;;;;;;;25.09;42.96;98076.28;5031692;28;20033;-51
2021/07/24 04:57:10;;;;;;;18.55;13.52;;;;;;;24.94;43.63;98065.16;5031823;28;20064;-51
2021/07/24 04:59:46;;;;;;;5.43;2.95;;;;;;;24.78;43.17;98059.41;5031870;28;20029;-51
2021/07/24 05:02:16;;;;;;;7.75;3.72;;;;;;;24.76;43.95;98062.38;5031737;28;20038;-50
2021/07/24 05:04:43;;;;;;;9.52;3.90;;;;;;;24.77;44.21;98058.63;5031608;28;20517;-50
2021/07/24 05:07:12;;;;;;;7.18;2.90;;;;;;;24.82;44.35;98050.41;5031424;28;20033;-51
2021/07/24 05:09:41;;;;;;;9.15;3.30;;;;;;;24.90;43.92;98051.56;5031535;28;20526;-51
2021/07/24 05:12:08;;;;;;;7.35;3.10;;;;;;;24.81;44.32;98054.22;5031707;28;20032;-50
2021/07/24 05:14:34;;;;;;;5.65;3.15;;;;;;;24.81;44.79;98064.94;5031513;28;20026;-51
2021/07/24 05:17:07;;;;;;;9.55;3.83;;;;;;;25.03;44.10;98063.28;5031149;28;20045;-51
2021/07/24 05:19:37;;;;;;;9.15;3.50;;;;;;;25.17;43.61;98061.25;5031455;28;20376;-51
2021/07/24 05:22:08;;;;;;;9.38;6.10;;;;;;;25.26;43.62;98072.88;5031387;28;20026;-51
2021/07/24 05:24:34;;;;;;;12.98;3.83;;;;;;;25.37;43.70;98067.97;5031416;28;20033;-51
2021/07/24 05:27:01;;;;;;;16.08;5.78;;;;;;;25.43;44.02;98066.72;5033630;28;20021;-50
2021/07/24 05:29:27;;;;;;;10.40;5.85;;;;;;;25.90;46.58;98066.19;5050430;28;20061;-51
2021/07/24 05:31:53;;;;;;;9.32;4.40;;;;;;;25.74;47.66;98065.84;5034937;28;20110;-51
2021/07/24 05:34:19;;;;;;;10.07;4.68;;;;;;;25.03;49.29;98065.97;5033746;28;20032;-50
2021/07/24 05:36:45;;;;;;;11.65;3.80;;;;;;;24.38;49.96;98078.09;5034996;28;20029;-50
2021/07/24 05:39:10;;;;;;;5.88;4.10;;;;;;;23.90;50.26;98069.56;5034916;28;20029;-51
2021/07/24 05:41:38;;;;;;;17.75;5.00;;;;;;;23.72;50.68;98073.13;5033568;28;20403;-50
2021/07/24 05:44:04;;;;;;;10.57;4.30;;;;;;;23.79;50.65;98072.75;5034877;28;20457;-49
2021/07/24 05:46:29;;;;;;;32.08;16.13;;;;;;;24.69;48.16;98080.84;5050009;28;20025;-50
2021/07/24 05:48:55;;;;;;;16.55;9.48;;;;;;;26.07;45.04;98078.84;5033476;28;20059;-50
2021/07/24 05:51:21;;;;;;;18.20;13.82;;;;;;;27.54;42.22;98063.31;5050082;28;20110;-50
2021/07/24 05:53:46;;;;;;;18.10;6.95;;;;;;;28.82;38.79;98071.72;5034737;28;20025;-49
2021/07/24 05:56:12;;;;;;;18.42;6.80;;;;;;;29.80;37.23;98065.50;5049943;28;20032;-50
2021/07/24 05:58:38;;;;;;;8.18;3.90;;;;;;;30.64;35.25;98061.19;5035219;28;20029;-50
2021/07/24 06:01:13;;;;;;;12.68;3.88;;;;;;;31.44;34.38;98051.06;5034750;28;20529;-49
2021/07/24 06:03:42;;;;;;;10.32;3.88;;;;;;;32.41;32.39;98053.03;5034582;28;20487;-51
2021/07/24 06:06:08;;;;;;;6.60;2.60;;;;;;;33.04;31.04;98046.31;5034457;28;20096;-51
2021/07/24 06:08:34;;;;;;;5.20;3.00;;;;;;;33.37;30.17;98047.63;5033040;28;20116;-51
2021/07/24 06:11:00;;;;;;;3.50;2.88;;;;;;;32.94;30.87;98039.59;5034327;28;20045;-51
2021/07/24 06:13:28;;;;;;;7.40;3.20;;;;;;;32.72;30.81;98038.47;5049694;28;20033;-51
2021/07/24 06:15:53;;;;;;;5.22;3.05;;;;;;;31.73;32.03;98038.13;5049355;28;20057;-51
2021/07/24 06:18:20;;;;;;;5.03;2.78;;;;;;;31.15;32.99;98033.38;5034295;28;20446;-51
2021/07/24 06:20:47;;;;;;;12.30;3.08;;;;;;;30.31;34.38;98034.44;5034121;28;20022;-50
2021/07/24 06:23:17;;;;;;;4.80;2.75;;;;;;;30.10;35.37;98024.56;5034201;28;20029;-51
2021/07/24 06:25:44;;;;;;;5.43;2.65;;;;;;;29.69;36.01;98026.50;5034124;28;20021;-51
2021/07/24 06:28:10;;;;;;;7.47;3.42;;;;;;;30.19;35.83;98019.00;5032682;28;20048;-50
2021/07/24 06:30:36;;;;;;;5.03;3.03;;;;;;;30.86;34.07;98013.72;5049312;28;20541;-50
2021/07/24 06:33:02;;;;;;;6.88;3.28;;;;;;;31.05;33.74;97996.78;5033891;28;20030;-51
2021/07/24 06:35:28;;;;;;;6.40;3.22;;;;;;;31.55;33.49;98002.50;5033907;28;20032;-51
2021/07/24 06:37:54;;;;;;;3.78;2.67;;;;;;;31.91;32.65;97990.41;5031714;28;20033;-51
2021/07/24 06:40:20;;;;;;;6.72;3.05;;;;;;;32.17;32.24;97984.34;5033834;28;20112;-51
2021/07/24 06:42:46;;;;;;;9.30;2.97;;;;;;;32.14;32.13;97987.00;5032508;28;20407;-50
2021/07/24 06:45:11;;;;;;;4.80;2.97;;;;;;;31.99;32.31;97975.84;5032373;28;20026;-50
2021/07/24 06:47:37;;;;;;;5.22;2.72;;;;;;;31.70;32.27;97971.81;5033684;28;20079;-51
2021/07/24 06:50:04;;;;;;;12.70;4.10;;;;;;;31.81;32.53;97972.00;5033665;28;20497;-51
2021/07/24 06:52:29;;;;;;;12.05;4.18;;;;;;;32.15;32.13;97972.28;5032266;28;20025;-50
2021/07/24 06:54:55;;;;;;;7.00;2.95;;;;;;;32.69;31.38;97975.91;5048904;28;20487;-51
2021/07/24 06:57:21;;;;;;;5.75;3.30;;;;;;;33.14;30.84;97988.63;5033568;28;20538;-51
2021/07/24 06:59:46;;;;;;;5.70;3.85;;;;;;;33.66;29.89;97986.19;5033434;28;20091;-50
2021/07/24 07:02:12;;;;;;;10.98;5.32;;;;;;;34.12;29.28;97974.22;5048729;28;20064;-50
2021/07/24 07:04:41;;;;;;;4.10;3.13;;;;;;;34.06;29.25;97973.00;5048689;28;20053;-50
2021/07/24 07:07:07;;;;;;;8.93;3.40;;;;;;;33.89;29.24;97966.25;5032206;28;20025;-51
2021/07/24 07:09:33;;;;;;;8.77;3.38;;;;;;;34.11;29.88;97964.47;5033298;28;20049;-50
2021/07/24 07:12:01;;;;;;;5.93;3.20;;;;;;;34.51;28.41;97971.09;5048544;28;20029;-51
2021/07/24 07:14:27;;;;;;;7.90;3.08;;;;;;;34.43;28.82;97978.44;5033158;28;20495;-51
2021/07/24 07:16:53;;;;;;;4.35;2.85;;;;;;;33.95;29.68;97979.13;5032863;28;20049;-51
2021/07/24 07:19:20;;;;;;;11.30;4.43;;;;;;;34.17;29.25;97971.22;5031785;28;20528;-51
2021/07/24 07:21:46;;;;;;;6.07;2.90;;;;;;;34.87;28.73;97971.38;5032960;28;20025;-50
2021/07/24 07:24:12;;;;;;;11.30;3.67;;;;;;;35.40;27.64;97960.00;5033013;28;20021;-50
2021/07/24 07:26:38;;;;;;;7.40;3.10;;;;;;;35.31;27.74;97970.47;5032846;28;20534;-50
2021/07/24 07:29:04;;;;;;;19.50;6.40;;;;;;;34.59;28.80;97967.25;5031605;28;20048;-50
2021/07/24 07:31:34;;;;;;;8.80;3.30;;;;;;;34.78;28.69;97963.53;5032869;28;20068;-51
2021/07/24 07:34:02;;;;;;;7.72;3.50;;;;;;;34.27;29.35;97965.06;5032861;28;20040;-50
2021/07/24 07:36:27;;;;;;;6.30;3.20;;;;;;;33.79;30.24;97979.34;5031450;28;20041;-51
2021/07/24 07:38:53;;;;;;;9.82;3.60;;;;;;;33.48;30.80;97980.50;5031373;28;20513;-50
2021/07/24 07:41:20;;;;;;;6.63;3.70;;;;;;;33.10;31.61;97989.72;5032686;28;20083;-50
2021/07/24 07:43:46;;;;;;;7.60;3.63;;;;;;;33.45;31.97;97992.16;5031311;28;20080;-51
2021/07/24 07:46:12;;;;;;;4.57;3.10;;;;;;;33.95;30.48;97992.75;5031246;28;20029;-51
2021/07/24 07:48:39;;;;;;;9.93;3.72;;;;;;;33.90;31.15;97993.06;5047690;28;20032;-50
2021/07/24 07:51:05;;;;;;;19.58;7.05;;;;;;;34.13;30.79;97989.41;5047782;28;20108;-51
2021/07/24 07:53:31;;;;;;;11.55;4.50;;;;;;;34.90;29.78;97984.25;5047811;28;20025;-51
2021/07/24 07:55:57;;;;;;;5.07;2.72;;;;;;;35.28;28.98;97993.09;5032324;28;20033;-51
2021/07/24 07:58:23;;;;;;;6.50;2.90;;;;;;;35.74;28.42;97995.25;5032421;28;20032;-51
2021/07/24 08:00:52;;;;;;;14.65;4.15;;;;;;;36.36;27.99;97984.06;5032270;28;20159;-50
2021/07/24 08:03:20;;;;;;;6.82;3.28;;;;;;;36.93;27.16;97977.03;5032565;28;20044;-51
2021/07/24 08:05:46;;;;;;;10.20;3.50;;;;;;;37.60;26.39;97986.22;5032456;28;20387;-51
2021/07/24 08:08:14;;;;;;;5.63;2.97;;;;;;;37.72;26.04;97985.00;5032148;28;20026;-51
2021/07/24 08:10:40;;;;;;;7.43;2.83;;;;;;;38.73;25.44;97979.59;5032397;28;20399;-51
2021/07/24 08:13:13;;;;;;;4.35;2.80;;;;;;;38.91;25.01;97977.47;5032197;28;20021;-51
2021/07/24 08:15:40;;;;;;;3.90;2.58;;;;;;;38.73;24.52;97979.59;5047212;28;20038;-51
2021/07/24 08:18:05;;;;;;;8.55;3.47;;;;;;;38.77;24.73;97988.59;5032438;28;20120;-50
2021/07/24 08:20:33;;;;;;;3.85;2.70;;;;;;;38.65;24.72;97981.63;5031891;28;20049;-51
2021/07/24 08:23:00;;;;;;;5.15;2.67;;;;;;;38.33;24.55;97979.13;5032002;28;20026;-51
2021/07/24 08:25:26;;;;;;;7.85;3.03;;;;;;;38.14;24.78;97978.50;5032040;28;20049;-51
2021/07/24 08:27:53;;;;;;;7.82;5.32;;;;;;;39.35;23.89;97969.56;5047549;28;20455;-51
2021/07/24 08:30:19;;;;;;;9.05;3.25;;;;;;;39.99;23.32;97956.97;5031822;28;20056;-53
2021/07/24 08:32:45;;;;;;;11.95;2.97;;;;;;;39.15;23.79;97964.69;5031853;28;20019;-53
2021/07/24 08:35:12;;;;;;;5.82;3.25;;;;;;;38.40;24.85;97968.13;5031867;28;20025;-53
2021/07/24 08:37:37;;;;;;;7.03;2.80;;;;;;;38.48;24.99;97968.84;5031823;28;20033;-53
2021/07/24 08:40:04;;;;;;;8.20;3.67;;;;;;;39.50;25.01;97957.25;5032012;28;20032;-52
2021/07/24 08:42:39;;;;;;;9.80;3.90;;;;;;;39.90;24.49;97960.22;5032077;28;20080;-53
2021/07/24 08:45:07;;;;;;;7.25;3.00;;;;;;;39.82;23.65;97964.25;5032031;28;20043;-53
2021/07/24 08:47:33;;;;;;;4.93;2.80;;;;;;;40.75;22.90;97964.81;5031687;28;20024;-53
2021/07/24 08:50:00;;;;;;;8.50;2.88;;;;;;;41.97;22.25;97964.31;5031724;28;20025;-53
2021/07/24 08:52:28;;;;;;;8.10;3.10;;;;;;;41.75;22.76;97969.53;5031747;28;20021;-53
2021/07/24 08:54:55;;;;;;;6.60;3.00;;;;;;;42.65;21.86;97968.97;5031929;28;20036;-53
2021/07/24 08:57:28;;;;;;;12.10;3.70;;;;;;;42.78;21.98;97971.78;5031648;28;20025;-53
2021/07/24 08:59:57;;;;;;;9.35;4.22;;;;;;;43.01;21.51;97972.81;5031634;28;20041;-53
2021/07/24 09:02:29;;;;;;;7.07;3.83;;;;;;;41.94;22.51;97976.97;5035061;28;20434;-53
2021/07/24 09:04:57;;;;;;;10.05;4.13;;;;;;;40.58;23.63;97969.41;5035692;28;20045;-53
2021/07/24 09:07:32;;;;;;;16.10;6.18;;;;;;;40.13;24.33;97972.47;5035505;28;20026;-53
2021/07/24 09:10:01;;;;;;;7.07;3.60;;;;;;;41.12;23.48;97979.44;5035517;28;20061;-53
2021/07/24 09:12:28;;;;;;;9.25;3.15;;;;;;;42.25;21.49;97974.69;5035479;28;20507;-53
2021/07/24 09:14:56;;;;;;;9.95;4.05;;;;;;;42.84;21.32;97964.56;5035456;28;20033;-52
2021/07/24 09:17:25;;;;;;;21.10;4.95;;;;;;;43.14;21.20;97970.06;5035126;28;20081;-52
2021/07/24 09:19:51;;;;;;;9.95;3.40;;;;;;;42.65;20.75;97968.97;5035222;28;20080;-54
2021/07/24 09:22:42;;;;;;;16.50;7.85;;;;;;;41.16;22.49;97974.66;5035336;28;20017;-54
2021/07/24 09:25:15;;;;;;;7.55;3.60;;;;;;;41.41;22.27;97952.13;5034010;28;20040;-53
2021/07/24 09:27:49;;;;;;;8.80;3.55;;;;;;;40.49;23.31;97964.44;5035305;28;20434;-53
2021/07/24 09:30:40;;;;;;;6.85;2.90;;;;;;;39.10;24.17;97958.84;5035523;28;20034;-53
2021/07/24 09:33:11;;;;;;;13.07;4.85;;;;;;;38.01;25.42;97946.47;5032175;28;20047;-53
2021/07/24 09:35:41;;;;;;;10.52;3.40;;;;;;;37.35;26.97;97961.69;5050370;28;20037;-53
2021/07/24 09:38:13;;;;;;;6.75;2.95;;;;;;;36.74;28.48;97957.09;5034975;28;20017;-53
2021/07/24 09:40:46;;;;;;;11.70;7.38;;;;;;;36.24;28.94;97948.94;5050261;28;20116;-51
2021/07/24 09:43:32;;;;;;;9.50;3.30;;;;;;;35.71;29.05;97941.41;5035000;28;20044;-51
2021/07/24 09:46:21;;;;;;;9.88;5.85;;;;;;;35.42;29.84;97927.66;5033525;28;20038;-50
2021/07/24 09:48:54;;;;;;;6.18;3.30;;;;;;;35.37;29.37;97931.50;5033519;28;20025;-51
2021/07/24 09:51:35;;;;;;;6.30;3.80;;;;;;;34.90;30.29;97930.50;5034859;28;20194;-51
2021/07/24 09:54:03;;;;;;;6.07;3.17;;;;;;;34.79;30.20;97941.34;5034715;28;20022;-51
2021/07/24 09:56:41;;;;;;;9.30;4.65;;;;;;;35.61;29.51;97940.94;5034661;28;20048;-51
2021/07/24 09:59:22;;;;;;;18.33;6.65;;;;;;;36.26;28.88;97932.13;5033380;28;20130;-51
2021/07/24 10:01:59;;;;;;;5.75;3.05;;;;;;;36.71;27.62;97933.28;5034488;28;20503;-51
2021/07/24 10:04:33;;;;;;;5.13;3.22;;;;;;;37.73;27.00;97939.97;5034596;28;20028;-51
2021/07/24 10:07:09;;;;;;;6.18;3.22;;;;;;;38.94;24.58;97921.00;5034424;28;20022;-51
2021/07/24 10:09:41;;;;;;;5.32;3.60;;;;;;;39.04;24.02;97928.38;5034447;28;20143;-51
2021/07/24 10:12:16;;;;;;;5.57;3.17;;;;;;;38.91;24.08;97930.81;5033730;28;20053;-51
2021/07/24 10:14:42;;;;;;;6.03;3.30;;;;;;;39.75;23.01;97923.91;5034008;28;20052;-52
2021/07/24 10:17:08;;;;;;;9.30;3.22;;;;;;;40.76;21.69;97921.56;5033806;28;20511;-54
2021/07/24 10:19:35;;;;;;;11.00;4.63;;;;;;;41.00;22.41;97923.03;5034259;28;20112;-53
2021/07/24 10:22:01;;;;;;;12.55;4.60;;;;;;;41.28;22.18;97920.94;5034181;28;20028;-53
2021/07/24 10:24:27;;;;;;;12.80;4.15;;;;;;;41.96;21.59;97932.44;5034172;28;20061;-52
2021/07/24 10:26:57;;;;;;;9.90;3.78;;;;;;;43.19;19.71;97933.66;5034069;28;20051;-54
2021/07/24 10:29:32;;;;;;;12.75;3.15;;;;;;;42.84;19.28;97930.63;5034116;28;20110;-53
2021/07/24 10:32:10;;;;;;;4.47;3.03;;;;;;;41.73;19.36;97928.63;5033998;28;20407;-53
2021/07/24 10:34:40;;;;;;;6.53;2.70;;;;;;;40.76;20.64;97916.06;5033952;28;20096;-53
2021/07/24 10:37:44;;;;;;;9.65;3.05;;;;;;;40.50;21.11;97934.97;5033929;28;20117;-53
2021/07/24 10:40:24;;;;;;;9.52;2.70;;;;;;;40.38;20.60;97932.81;5033819;28;20506;-53
2021/07/24 10:42:53;;;;;;;3.90;2.97;;;;;;;40.68;20.48;97932.66;5034140;28;20041;-53
2021/07/24 10:48:42;;;;;;;7.50;3.67;;;;;;;41.71;20.17;97923.53;5033937;28;20037;-53
2021/07/24 10:51:07;;;;;;;5.30;2.60;;;;;;;42.47;19.76;97919.00;5004455;28;20046;-53
2021/07/24 10:54:01;;;;;;;3.50;2.67;;;;;;;42.39;19.67;97925.91;5033883;28;20036;-53
2021/07/24 10:56:41;;;;;;;7.13;2.95;;;;;;;42.28;19.61;97907.63;5033558;28;20148;-53
2021/07/24 10:59:13;;;;;;;9.70;3.13;;;;;;;42.40;19.00;97908.91;5033530;28;20033;-54
2021/07/24 11:01:56;;;;;;;7.57;2.58;;;;;;;41.89;19.16;97901.06;5033413;28;20399;-54
2021/07/24 11:04:38;;;;;;;7.95;2.75;;;;;;;40.95;19.81;97907.00;5033501;28;20036;-53
2021/07/24 11:07:12;;;;;;;8.43;3.13;;;;;;;40.63;20.55;97905.66;5048590;28;20033;-53
2021/07/24 11:09:45;;;;;;;6.00;3.05;;;;;;;41.20;20.18;97898.28;5033229;28;20096;-53
2021/07/24 11:12:15;;;;;;;5.72;3.40;;;;;;;41.37;20.13;97890.06;5033319;28;20068;-53
2021/07/24 11:14:41;;;;;;;7.07;3.05;;;;;;;41.81;20.13;97890.66;5048519;28;20034;-53
2021/07/24 11:17:07;;;;;;;8.50;3.10;;;;;;;42.00;20.78;97889.81;5032981;28;20060;-54
2021/07/24 11:19:37;;;;;;;11.38;5.05;;;;;;;42.01;21.98;97907.88;5033067;28;20510;-54
2021/07/24 11:22:24;;;;;;;7.50;3.65;;;;;;;42.23;21.93;97907.38;5033373;28;20068;-53
2021/07/24 11:24:50;;;;;;;5.35;3.35;;;;;;;42.29;21.48;97902.91;5032781;28;20029;-53
2021/07/24 11:27:29;;;;;;;6.00;3.30;;;;;;;42.29;21.44;97909.19;5032834;28;20025;-52
2021/07/24 11:30:16;;;;;;;10.10;3.70;;;;;;;42.36;21.50;97901.94;5032843;28;20061;-53
2021/07/24 11:32:45;;;;;;;9.70;3.42;;;;;;;42.68;21.41;97901.91;5033063;28;20503;-52
2021/07/24 11:35:15;;;;;;;6.22;3.10;;;;;;;42.77;21.02;97898.50;5032734;28;20021;-53
2021/07/24 11:37:46;;;;;;;5.55;3.72;;;;;;;42.48;21.31;97890.19;5032797;28;20040;-53
2021/07/24 11:40:18;;;;;;;12.05;4.10;;;;;;;41.96;21.90;97886.38;5031444;28;20053;-52
2021/07/24 11:43:13;;;;;;;7.85;3.63;;;;;;;41.78;21.43;97897.81;5047995;28;20040;-52
2021/07/24 11:45:39;;;;;;;4.68;2.75;;;;;;;41.25;21.33;97900.53;5031337;28;20124;-53